sensor_id;sensor_type;location;lat;lon;timestamp;pressure;altitude;pressure_sealevel;temperature;humidity
68525;BME280;55524;51.380;13.372;2023-12-20T00:02:08;100151.41;;;4.96;100.00
68525;BME280;55524;51.380;13.372;2023-12-20T00:04:35;100154.03;;;4.96;100.00
68525;BME280;55524;51.380;13.372;2023-12-20T00:07:01;100155.78;;;4.94;100.00
68525;BME280;55524;51.380;13.372;2023-12-20T00:09:28;100147.94;;;4.94;100.00
68525;BME280;55524;51.380;13.372;2023-12-20T00:11:56;100151.41;;;4.94;100.00
68525;BME280;55524;51.380;13.372;2023-12-20T00:14:23;100142.66;;;4.97;100.00
68525;BME280;55524;51.380;13.372;2023-12-20T00:16:49;100149.66;;;4.97;100.00
68525;BME280;55524;51.380;13.372;2023-12-20T00:19:15;100145.31;;;4.96;100.00
68525;BME280;55524;51.380;13.372;2023-12-20T00:21:42;100148.81;;;4.94;100.00
68525;BME280;55524;51.380;13.372;2023-12-20T00:24:08;100147.09;;;4.93;100.00
68525;BME280;55524;51.380;13.372;2023-12-20T00:26:35;100146.28;;;4.91;100.00
68525;BME280;55524;51.380;13.372;2023-12-20T00:29:01;100140.13;;;4.92;100.00
68525;BME280;55524;51.380;13.372;2023-12-20T00:31:27;100139.22;;;4.95;100.00
68525;BME280;55524;51.380;13.372;2023-12-20T00:33:54;100130.47;;;4.94;100.00
68525;BME280;55524;51.380;13.372;2023-12-20T00:36:20;100136.59;;;4.95;100.00
68525;BME280;55524;51.380;13.372;2023-12-20T00:38:47;100136.66;;;4.92;100.00
68525;BME280;55524;51.380;13.372;2023-12-20T00:41:14;100133.19;;;4.91;100.00
68525;BME280;55524;51.380;13.372;2023-12-20T00:43:40;100120.91;;;4.95;100.00
68525;BME280;55524;51.380;13.372;2023-12-20T00:46:06;100122.72;;;4.90;100.00
68525;BME280;55524;51.380;13.372;2023-12-20T00:48:32;100124.47;;;4.91;100.00
68525;BME280;55524;51.380;13.372;2023-12-20T00:50:59;100121.03;;;4.87;100.00
68525;BME280;55524;51.380;13.372;2023-12-20T00:53:25;100125.38;;;4.87;100.00
68525;BME280;55524;51.380;13.372;2023-12-20T00:55:51;100123.66;;;4.86;100.00
68525;BME280;55524;51.380;13.372;2023-12-20T00:58:18;100111.53;;;4.83;100.00
68525;BME280;55524;51.380;13.372;2023-12-20T01:00:44;100113.25;;;4.83;100.00
68525;BME280;55524;51.380;13.372;2023-12-20T01:03:11;100115.91;;;4.81;100.00
68525;BME280;55524;51.380;13.372;2023-12-20T01:05:38;100109.78;;;4.82;100.00
68525;BME280;55524;51.380;13.372;2023-12-20T01:08:04;100110.63;;;4.84;100.00
68525;BME280;55524;51.380;13.372;2023-12-20T01:10:31;100105.41;;;4.83;100.00
68525;BME280;55524;51.380;13.372;2023-12-20T01:12:58;100107.19;;;4.81;100.00
68525;BME280;55524;51.380;13.372;2023-12-20T01:15:24;100100.19;;;4.81;100.00
68525;BME280;55524;51.380;13.372;2023-12-20T01:17:53;100105.47;;;4.80;100.00
68525;BME280;55524;51.380;13.372;2023-12-20T01:20:27;100115.06;;;4.81;100.00
68525;BME280;55524;51.380;13.372;2023-12-20T01:22:53;100104.56;;;4.81;100.00
68525;BME280;55524;51.380;13.372;2023-12-20T01:25:19;100110.66;;;4.81;100.00
68525;BME280;55524;51.380;13.372;2023-12-20T01:27:46;100109.06;;;4.76;100.00
68525;BME280;55524;51.380;13.372;2023-12-20T01:30:12;100107.25;;;4.79;100.00
68525;BME280;55524;51.380;13.372;2023-12-20T01:32:39;100102.91;;;4.77;100.00
68525;BME280;55524;51.380;13.372;2023-12-20T01:35:05;100103.81;;;4.74;100.00
68525;BME280;55524;51.380;13.372;2023-12-20T01:37:32;100099.53;;;4.72;100.00
68525;BME280;55524;51.380;13.372;2023-12-20T01:39:58;100103.88;;;4.73;100.00
68525;BME280;55524;51.380;13.372;2023-12-20T01:42:25;100095.97;;;4.74;100.00
68525;BME280;55524;51.380;13.372;2023-12-20T01:44:51;100094.31;;;4.70;100.00
68525;BME280;55524;51.380;13.372;2023-12-20T01:47:18;100086.47;;;4.70;100.00
68525;BME280;55524;51.380;13.372;2023-12-20T01:49:46;100079.53;;;4.67;100.00
68525;BME280;55524;51.380;13.372;2023-12-20T01:55:38;100076.97;;;4.64;100.00
68525;BME280;55524;51.380;13.372;2023-12-20T01:58:06;100076.94;;;4.66;100.00
68525;BME280;55524;51.380;13.372;2023-12-20T02:00:33;100070.03;;;4.63;100.00
68525;BME280;55524;51.380;13.372;2023-12-20T02:03:04;100061.28;;;4.64;100.00
68525;BME280;55524;51.380;13.372;2023-12-20T02:05:31;100060.38;;;4.65;100.00
68525;BME280;55524;51.380;13.372;2023-12-20T02:07:58;100060.47;;;4.61;100.00
68525;BME280;55524;51.380;13.372;2023-12-20T02:10:25;100058.72;;;4.61;100.00
68525;BME280;55524;51.380;13.372;2023-12-20T02:12:51;100064.78;;;4.63;100.00
68525;BME280;55524;51.380;13.372;2023-12-20T02:15:38;100062.25;;;4.59;100.00
68525;BME280;55524;51.380;13.372;2023-12-20T02:18:05;100069.22;;;4.60;100.00
68525;BME280;55524;51.380;13.372;2023-12-20T02:20:32;100069.13;;;4.63;100.00
68525;BME280;55524;51.380;13.372;2023-12-20T02:22:58;100070.06;;;4.60;100.00
68525;BME280;55524;51.380;13.372;2023-12-20T02:25:24;100069.19;;;4.61;100.00
68525;BME280;55524;51.380;13.372;2023-12-20T02:27:51;100080.56;;;4.60;100.00
68525;BME280;55524;51.380;13.372;2023-12-20T02:30:18;100076.22;;;4.59;100.00
68525;BME280;55524;51.380;13.372;2023-12-20T02:32:44;100068.31;;;4.61;100.00
68525;BME280;55524;51.380;13.372;2023-12-20T02:35:10;100071.84;;;4.60;100.00
68525;BME280;55524;51.380;13.372;2023-12-20T02:37:37;100063.13;;;4.59;100.00
68525;BME280;55524;51.380;13.372;2023-12-20T02:40:03;100064.84;;;4.59;100.00
68525;BME280;55524;51.380;13.372;2023-12-20T02:42:30;100059.66;;;4.57;100.00
68525;BME280;55524;51.380;13.372;2023-12-20T02:44:57;100063.13;;;4.59;100.00
68525;BME280;55524;51.380;13.372;2023-12-20T02:47:23;100051.78;;;4.59;100.00
68525;BME280;55524;51.380;13.372;2023-12-20T02:49:49;100052.66;;;4.59;100.00
68525;BME280;55524;51.380;13.372;2023-12-20T02:52:16;100057.00;;;4.59;100.00
68525;BME280;55524;51.380;13.372;2023-12-20T02:54:42;100056.13;;;4.60;100.00
68525;BME280;55524;51.380;13.372;2023-12-20T02:57:09;100053.53;;;4.60;100.00
68525;BME280;55524;51.380;13.372;2023-12-20T02:59:35;100047.44;;;4.58;100.00
68525;BME280;55524;51.380;13.372;2023-12-20T03:02:01;100046.63;;;4.56;100.00
68525;BME280;55524;51.380;13.372;2023-12-20T03:04:28;100047.44;;;4.59;100.00
68525;BME280;55524;51.380;13.372;2023-12-20T03:06:54;100051.78;;;4.59;100.00
68525;BME280;55524;51.380;13.372;2023-12-20T03:09:20;100052.66;;;4.58;100.00
68525;BME280;55524;51.380;13.372;2023-12-20T03:11:46;100049.16;;;4.60;100.00
68525;BME280;55524;51.380;13.372;2023-12-20T03:14:13;100050.88;;;4.61;100.00
68525;BME280;55524;51.380;13.372;2023-12-20T03:16:39;100053.53;;;4.60;100.00
68525;BME280;55524;51.380;13.372;2023-12-20T03:19:05;100043.09;;;4.57;100.00
68525;BME280;55524;51.380;13.372;2023-12-20T03:21:32;100046.59;;;4.57;100.00
68525;BME280;55524;51.380;13.372;2023-12-20T03:23:58;100046.59;;;4.57;100.00
68525;BME280;55524;51.380;13.372;2023-12-20T03:26:24;100039.63;;;4.56;100.00
68525;BME280;55524;51.380;13.372;2023-12-20T03:28:51;100037.94;;;4.54;100.00
68525;BME280;55524;51.380;13.372;2023-12-20T03:31:18;100035.34;;;4.52;100.00
68525;BME280;55524;51.380;13.372;2023-12-20T03:33:44;100038.84;;;4.51;100.00
68525;BME280;55524;51.380;13.372;2023-12-20T03:36:10;100033.56;;;4.54;100.00
68525;BME280;55524;51.380;13.372;2023-12-20T03:38:37;100035.34;;;4.52;100.00
68525;BME280;55524;51.380;13.372;2023-12-20T03:41:04;100036.22;;;4.51;100.00
68525;BME280;55524;51.380;13.372;2023-12-20T03:43:30;100037.09;;;4.52;100.00
68525;BME280;55524;51.380;13.372;2023-12-20T03:45:57;100036.16;;;4.54;100.00
68525;BME280;55524;51.380;13.372;2023-12-20T03:48:24;100046.69;;;4.51;100.00
68525;BME280;55524;51.380;13.372;2023-12-20T03:50:51;100044.06;;;4.51;100.00
68525;BME280;55524;51.380;13.372;2023-12-20T03:53:17;100034.50;;;4.50;100.00
68525;BME280;55524;51.380;13.372;2023-12-20T03:55:46;100032.75;;;4.51;100.00
68525;BME280;55524;51.380;13.372;2023-12-20T03:58:13;100031.84;;;4.53;100.00
68525;BME280;55524;51.380;13.372;2023-12-20T04:00:39;100023.13;;;4.53;100.00
68525;BME280;55524;51.380;13.372;2023-12-20T04:03:06;100035.34;;;4.52;100.00
68525;BME280;55524;51.380;13.372;2023-12-20T04:05:33;100038.78;;;4.54;100.00
68525;BME280;55524;51.380;13.372;2023-12-20T04:08:01;100038.72;;;4.57;100.00
68525;BME280;55524;51.380;13.372;2023-12-20T04:10:27;100031.78;;;4.55;100.00
68525;BME280;55524;51.380;13.372;2023-12-20T04:12:54;100031.84;;;4.53;100.00
68525;BME280;55524;51.380;13.372;2023-12-20T04:15:21;100025.69;;;4.56;100.00
68525;BME280;55524;51.380;13.372;2023-12-20T04:17:47;100019.66;;;4.52;100.00
68525;BME280;55524;51.380;13.372;2023-12-20T04:20:14;100023.94;;;4.55;100.00
68525;BME280;55524;51.380;13.372;2023-12-20T04:22:40;100030.94;;;4.56;100.00
68525;BME280;55524;51.380;13.372;2023-12-20T04:25:06;100023.03;;;4.57;100.00
68525;BME280;55524;51.380;13.372;2023-12-20T04:27:34;100038.78;;;4.54;100.00
68525;BME280;55524;51.380;13.372;2023-12-20T04:30:01;100042.22;;;4.58;100.00
68525;BME280;55524;51.380;13.372;2023-12-20T04:32:27;100037.00;;;4.56;100.00
68525;BME280;55524;51.380;13.372;2023-12-20T04:34:53;100035.16;;;4.61;100.00
68525;BME280;55524;51.380;13.372;2023-12-20T04:37:20;100038.72;;;4.57;100.00
68525;BME280;55524;51.380;13.372;2023-12-20T04:39:46;100046.59;;;4.57;100.00
68525;BME280;55524;51.380;13.372;2023-12-20T04:42:13;100048.28;;;4.60;100.00
68525;BME280;55524;51.380;13.372;2023-12-20T04:44:39;100051.81;;;4.57;100.00
68525;BME280;55524;51.380;13.372;2023-12-20T04:47:05;100036.13;;;4.57;100.00
68525;BME280;55524;51.380;13.372;2023-12-20T04:49:32;100052.72;;;4.56;100.00
68525;BME280;55524;51.380;13.372;2023-12-20T04:51:58;100050.09;;;4.55;100.00
68525;BME280;55524;51.380;13.372;2023-12-20T05:00:30;100056.19;;;4.55;100.00
68525;BME280;55524;51.380;13.372;2023-12-20T05:02:56;100054.47;;;4.56;100.00
68525;BME280;55524;51.380;13.372;2023-12-20T05:05:22;100053.56;;;4.57;100.00
68525;BME280;55524;51.380;13.372;2023-12-20T05:07:52;100053.53;;;4.60;100.00
68525;BME280;55524;51.380;13.372;2023-12-20T05:10:18;100050.03;;;4.59;100.00
68525;BME280;55524;51.380;13.372;2023-12-20T05:12:45;100057.00;;;4.60;100.00
68525;BME280;55524;51.380;13.372;2023-12-20T05:15:14;100058.66;;;4.64;100.00
68525;BME280;55524;51.380;13.372;2023-12-20T05:17:40;100063.91;;;4.64;100.00
68525;BME280;55524;51.380;13.372;2023-12-20T05:20:07;100059.53;;;4.65;100.00
68525;BME280;55524;51.380;13.372;2023-12-20T05:22:34;100049.16;;;4.60;100.00
68525;BME280;55524;51.380;13.372;2023-12-20T05:25:00;100055.19;;;4.62;100.00
68525;BME280;55524;51.380;13.372;2023-12-20T05:27:26;100049.19;;;4.57;100.00
68525;BME280;55524;51.380;13.372;2023-12-20T05:29:53;100058.66;;;4.63;100.00
68525;BME280;55524;51.380;13.372;2023-12-20T05:32:23;100065.72;;;4.61;100.00
68525;BME280;55524;51.380;13.372;2023-12-20T05:34:50;100081.41;;;4.61;100.00
68525;BME280;55524;51.380;13.372;2023-12-20T05:37:16;100066.56;;;4.61;100.00
68525;BME280;55524;51.380;13.372;2023-12-20T05:39:42;100077.84;;;4.65;100.00
68525;BME280;55524;51.380;13.372;2023-12-20T05:42:09;100084.84;;;4.63;100.00
68525;BME280;55524;51.380;13.372;2023-12-20T05:44:35;100085.72;;;4.63;100.00
68525;BME280;55524;51.380;13.372;2023-12-20T05:47:02;100092.69;;;4.63;100.00
68525;BME280;55524;51.380;13.372;2023-12-20T05:49:28;100092.69;;;4.64;100.00
68525;BME280;55524;51.380;13.372;2023-12-20T05:51:55;100081.41;;;4.61;100.00
68525;BME280;55524;51.380;13.372;2023-12-20T05:54:21;100083.19;;;4.59;100.00
68525;BME280;55524;51.380;13.372;2023-12-20T05:56:48;100083.22;;;4.57;100.00
68525;BME280;55524;51.380;13.372;2023-12-20T05:59:14;100088.41;;;4.59;100.00
68525;BME280;55524;51.380;13.372;2023-12-20T06:01:40;100094.50;;;4.61;100.00
68525;BME280;55524;51.380;13.372;2023-12-20T06:04:07;100095.28;;;4.64;100.00
68525;BME280;55524;51.380;13.372;2023-12-20T06:06:33;100096.19;;;4.63;100.00
68525;BME280;55524;51.380;13.372;2023-12-20T06:08:59;100104.91;;;4.62;100.00
68525;BME280;55524;51.380;13.372;2023-12-20T06:11:26;100102.28;;;4.64;100.00
68525;BME280;55524;51.380;13.372;2023-12-20T06:13:53;100108.44;;;4.61;100.00
68525;BME280;55524;51.380;13.372;2023-12-20T06:16:20;100103.06;;;4.69;100.00
68525;BME280;55524;51.380;13.372;2023-12-20T06:18:46;100104.00;;;4.65;100.00
68525;BME280;55524;51.380;13.372;2023-12-20T06:21:12;100103.16;;;4.63;100.00
68525;BME280;55524;51.380;13.372;2023-12-20T06:23:39;100111.91;;;4.63;100.00
68525;BME280;55524;51.380;13.372;2023-12-20T06:26:05;100101.44;;;4.63;100.00
68525;BME280;55524;51.380;13.372;2023-12-20T06:28:32;100098.78;;;4.65;100.00
68525;BME280;55524;51.380;13.372;2023-12-20T06:30:58;100100.53;;;4.64;100.00
68525;BME280;55524;51.380;13.372;2023-12-20T06:33:32;100105.75;;;4.64;100.00
68525;BME280;55524;51.380;13.372;2023-12-20T06:35:58;100105.00;;;4.59;100.00
68525;BME280;55524;51.380;13.372;2023-12-20T06:38:24;100106.72;;;4.60;100.00
68525;BME280;55524;51.380;13.372;2023-12-20T06:40:51;100107.66;;;4.56;100.00
68525;BME280;55524;51.380;13.372;2023-12-20T06:43:17;100110.28;;;4.55;100.00
68525;BME280;55524;51.380;13.372;2023-12-20T06:45:43;100106.84;;;4.51;100.00
68525;BME280;55524;51.380;13.372;2023-12-20T06:48:10;100108.84;;;4.40;100.00
68525;BME280;55524;51.380;13.372;2023-12-20T06:50:38;100109.81;;;4.33;100.00
68525;BME280;55524;51.380;13.372;2023-12-20T06:53:06;100109.91;;;4.28;100.00
68525;BME280;55524;51.380;13.372;2023-12-20T06:55:36;100116.09;;;4.23;100.00
68525;BME280;55524;51.380;13.372;2023-12-20T06:58:03;100120.56;;;4.16;100.00
68525;BME280;55524;51.380;13.372;2023-12-20T07:00:31;100111.88;;;4.14;100.00
68525;BME280;55524;51.380;13.372;2023-12-20T07:02:58;100106.75;;;4.08;100.00
68525;BME280;55524;51.380;13.372;2023-12-20T07:05:27;100109.50;;;3.99;100.00
68525;BME280;55524;51.380;13.372;2023-12-20T07:07:54;100107.00;;;3.92;100.00
68525;BME280;55524;51.380;13.372;2023-12-20T07:10:20;100109.66;;;3.89;100.00
68525;BME280;55524;51.380;13.372;2023-12-20T07:12:50;100110.56;;;3.87;100.00
68525;BME280;55524;51.380;13.372;2023-12-20T07:15:20;100107.13;;;3.83;100.00
68525;BME280;55524;51.380;13.372;2023-12-20T07:17:46;100108.94;;;3.81;100.00
68525;BME280;55524;51.380;13.372;2023-12-20T07:20:12;100105.38;;;3.84;100.00
68525;BME280;55524;51.380;13.372;2023-12-20T07:22:39;100104.59;;;3.80;100.00
68525;BME280;55524;51.380;13.372;2023-12-20T07:25:06;100097.69;;;3.75;100.00
68525;BME280;55524;51.380;13.372;2023-12-20T07:27:32;100100.41;;;3.67;100.00
68525;BME280;55524;51.380;13.372;2023-12-20T07:29:59;100108.25;;;3.68;100.00
68525;BME280;55524;51.380;13.372;2023-12-20T07:32:25;100095.19;;;3.68;100.00
68525;BME280;55524;51.380;13.372;2023-12-20T07:34:52;100110.03;;;3.63;100.00
68525;BME280;55524;51.380;13.372;2023-12-20T07:37:19;100099.59;;;3.63;100.00
68525;BME280;55524;51.380;13.372;2023-12-20T07:39:45;100112.66;;;3.63;100.00
68525;BME280;55524;51.380;13.372;2023-12-20T07:42:12;100112.53;;;3.71;100.00
68525;BME280;55524;51.380;13.372;2023-12-20T07:44:39;100116.75;;;3.81;100.00
68525;BME280;55524;51.380;13.372;2023-12-20T07:47:08;100119.16;;;3.97;100.00
68525;BME280;55524;51.380;13.372;2023-12-20T07:49:34;100118.94;;;4.09;100.00
68525;BME280;55524;51.380;13.372;2023-12-20T07:52:09;100126.66;;;4.16;100.00
68525;BME280;55524;51.380;13.372;2023-12-20T07:54:36;100119.22;;;4.44;100.00
68525;BME280;55524;51.380;13.372;2023-12-20T08:00:24;100114.47;;;5.52;100.00
68525;BME280;55524;51.380;13.372;2023-12-20T08:02:50;100113.78;;;5.81;100.00
68525;BME280;55524;51.380;13.372;2023-12-20T08:05:17;100106.53;;;5.94;100.00
68525;BME280;55524;51.380;13.372;2023-12-20T08:07:44;100112.25;;;6.11;100.00
68525;BME280;55524;51.380;13.372;2023-12-20T08:10:20;100108.56;;;6.18;100.00
68525;BME280;55524;51.380;13.372;2023-12-20T08:12:46;100098.59;;;5.97;100.00
68525;BME280;55524;51.380;13.372;2023-12-20T08:15:12;100106.28;;;5.65;100.00
68525;BME280;55524;51.380;13.372;2023-12-20T08:17:39;100114.03;;;5.30;100.00
68525;BME280;55524;51.380;13.372;2023-12-20T08:20:05;100109.91;;;5.20;100.00
68525;BME280;55524;51.380;13.372;2023-12-20T08:22:32;100101.28;;;5.14;100.00
68525;BME280;55524;51.380;13.372;2023-12-20T08:24:58;100103.19;;;5.06;100.00
68525;BME280;55524;51.380;13.372;2023-12-20T08:27:25;100098.91;;;5.02;100.00
68525;BME280;55524;51.380;13.372;2023-12-20T08:29:52;100107.72;;;4.98;100.00
68525;BME280;55524;51.380;13.372;2023-12-20T08:32:18;100105.19;;;4.95;100.00
68525;BME280;55524;51.380;13.372;2023-12-20T08:34:44;100101.72;;;4.93;100.00
68525;BME280;55524;51.380;13.372;2023-12-20T08:37:10;100097.31;;;4.95;100.00
68525;BME280;55524;51.380;13.372;2023-12-20T08:39:37;100092.00;;;4.98;100.00
68525;BME280;55524;51.380;13.372;2023-12-20T08:42:03;100092.00;;;4.98;100.00
68525;BME280;55524;51.380;13.372;2023-12-20T08:44:30;100084.06;;;5.03;100.00
68525;BME280;55524;51.380;13.372;2023-12-20T08:46:56;100086.47;;;5.13;100.00
68525;BME280;55524;51.380;13.372;2023-12-20T08:49:29;100085.53;;;5.16;100.00
68525;BME280;55524;51.380;13.372;2023-12-20T08:52:06;100088.91;;;5.23;100.00
68525;BME280;55524;51.380;13.372;2023-12-20T08:54:32;100088.00;;;5.24;100.00
68525;BME280;55524;51.380;13.372;2023-12-20T08:56:58;100083.41;;;5.33;100.00
68525;BME280;55524;51.380;13.372;2023-12-20T08:59:25;100074.59;;;5.37;100.00
68525;BME280;55524;51.380;13.372;2023-12-20T09:01:51;100080.66;;;5.39;100.00
68525;BME280;55524;51.380;13.372;2023-12-20T09:04:21;100085.13;;;5.36;100.00
68525;BME280;55524;51.380;13.372;2023-12-20T09:06:47;100076.34;;;5.37;100.00
68525;BME280;55524;51.380;13.372;2023-12-20T09:09:13;100079.66;;;5.47;100.00
68525;BME280;55524;51.380;13.372;2023-12-20T09:11:40;100089.22;;;5.46;100.00
68525;BME280;55524;51.380;13.372;2023-12-20T09:14:08;100082.16;;;5.51;100.00
68525;BME280;55524;51.380;13.372;2023-12-20T09:16:34;100079.50;;;5.53;100.00
68525;BME280;55524;51.380;13.372;2023-12-20T09:19:01;100074.34;;;5.48;100.00
68525;BME280;55524;51.380;13.372;2023-12-20T09:21:30;100073.50;;;5.46;100.00
68525;BME280;55524;51.380;13.372;2023-12-20T09:23:56;100061.09;;;5.54;100.00
68525;BME280;55524;51.380;13.372;2023-12-20T09:26:22;100052.47;;;5.51;100.00
68525;BME280;55524;51.380;13.372;2023-12-20T09:28:49;100046.22;;;5.56;100.00
68525;BME280;55524;51.380;13.372;2023-12-20T09:31:15;100056.88;;;5.49;100.00
68525;BME280;55524;51.380;13.372;2023-12-20T09:33:42;100043.72;;;5.50;100.00
68525;BME280;55524;51.380;13.372;2023-12-20T09:36:08;100042.91;;;5.48;100.00
68525;BME280;55524;51.380;13.372;2023-12-20T09:38:34;100047.41;;;5.41;100.00
68525;BME280;55524;51.380;13.372;2023-12-20T09:41:01;100059.66;;;5.42;100.00
68525;BME280;55524;51.380;13.372;2023-12-20T09:43:31;100055.97;;;5.50;100.00
68525;BME280;55524;51.380;13.372;2023-12-20T09:46:01;100055.41;;;5.74;100.00
68525;BME280;55524;51.380;13.372;2023-12-20T09:48:34;100046.84;;;6.03;100.00
68525;BME280;55524;51.380;13.372;2023-12-20T09:51:04;100056.13;;;6.16;100.00
68525;BME280;55524;51.380;13.372;2023-12-20T09:53:31;100058.16;;;6.05;100.00
68525;BME280;55524;51.380;13.372;2023-12-20T09:55:59;100046.97;;;5.99;100.00
68525;BME280;55524;51.380;13.372;2023-12-20T09:58:26;100042.72;;;5.93;100.00
68525;BME280;55524;51.380;13.372;2023-12-20T10:00:53;100036.78;;;5.85;100.00
68525;BME280;55524;51.380;13.372;2023-12-20T10:03:25;100030.69;;;5.84;100.00
68525;BME280;55524;51.380;13.372;2023-12-20T10:05:57;100015.63;;;5.94;100.00
68525;BME280;55524;51.380;13.372;2023-12-20T10:08:24;100015.31;;;6.06;100.00
68525;BME280;55524;51.380;13.372;2023-12-20T10:10:57;100010.00;;;6.08;100.00
68525;BME280;55524;51.380;13.372;2023-12-20T10:13:28;100002.66;;;6.22;100.00
68525;BME280;55524;51.380;13.372;2023-12-20T10:15:55;99997.28;;;6.27;100.00
68525;BME280;55524;51.380;13.372;2023-12-20T10:18:23;99980.69;;;6.26;100.00
68525;BME280;55524;51.380;13.372;2023-12-20T10:20:49;99975.44;;;6.25;100.00
68525;BME280;55524;51.380;13.372;2023-12-20T10:23:16;99975.72;;;6.15;100.00
68525;BME280;55524;51.380;13.372;2023-12-20T10:25:49;99981.94;;;6.11;100.00
68525;BME280;55524;51.380;13.372;2023-12-20T10:28:21;99974.88;;;6.13;100.00
68525;BME280;55524;51.380;13.372;2023-12-20T10:30:49;99972.97;;;6.20;100.00
68525;BME280;55524;51.380;13.372;2023-12-20T10:33:24;99963.84;;;6.33;100.00
68525;BME280;55524;51.380;13.372;2023-12-20T10:35:52;99961.84;;;6.43;100.00
68525;BME280;55524;51.380;13.372;2023-12-20T10:38:20;99941.53;;;6.50;100.00
68525;BME280;55524;51.380;13.372;2023-12-20T10:40:50;99957.38;;;6.45;100.00
68525;BME280;55524;51.380;13.372;2023-12-20T10:43:24;99948.63;;;6.46;100.00
68525;BME280;55524;51.380;13.372;2023-12-20T10:45:52;99951.13;;;6.51;100.00
68525;BME280;55524;51.380;13.372;2023-12-20T10:48:19;99948.41;;;6.54;100.00
68525;BME280;55524;51.380;13.372;2023-12-20T10:50:47;99940.69;;;6.48;100.00
68525;BME280;55524;51.380;13.372;2023-12-20T10:53:16;99950.28;;;6.49;100.00
68525;BME280;55524;51.380;13.372;2023-12-20T10:55:43;99947.41;;;6.58;100.00
68525;BME280;55524;51.380;13.372;2023-12-20T10:58:10;99933.25;;;6.63;100.00
68525;BME280;55524;51.380;13.372;2023-12-20T11:00:41;99930.66;;;6.62;100.00
68525;BME280;55524;51.380;13.372;2023-12-20T11:03:12;99936.78;;;6.62;100.00
68525;BME280;55524;51.380;13.372;2023-12-20T11:06:03;99935.28;;;6.54;100.00
68525;BME280;55524;51.380;13.372;2023-12-20T11:08:44;99932.59;;;6.55;100.00
68525;BME280;55524;51.380;13.372;2023-12-20T11:14:13;99919.78;;;6.45;100.00
68525;BME280;55524;51.380;13.372;2023-12-20T11:17:11;99928.63;;;6.42;100.00
68525;BME280;55524;51.380;13.372;2023-12-20T11:22:31;99920.38;;;6.54;100.00
68525;BME280;55524;51.380;13.372;2023-12-20T11:25:08;99911.53;;;6.58;100.00
68525;BME280;55524;51.380;13.372;2023-12-20T11:27:37;99915.06;;;6.57;100.00
68525;BME280;55524;51.380;13.372;2023-12-20T11:30:07;99899.97;;;6.64;100.00
68525;BME280;55524;51.380;13.372;2023-12-20T11:32:36;99909.75;;;6.59;100.00
68525;BME280;55524;51.380;13.372;2023-12-20T11:35:18;99906.13;;;6.63;100.00
68525;BME280;55524;51.380;13.372;2023-12-20T11:37:46;99905.03;;;6.70;100.00
68525;BME280;55524;51.380;13.372;2023-12-20T11:40:16;99892.72;;;6.72;100.00
68525;BME280;55524;51.380;13.372;2023-12-20T11:43:03;99895.19;;;6.77;100.00
68525;BME280;55524;51.380;13.372;2023-12-20T11:45:31;99898.50;;;6.83;100.00
68525;BME280;55524;51.380;13.372;2023-12-20T11:48:03;99890.63;;;6.83;100.00
68525;BME280;55524;51.380;13.372;2023-12-20T11:50:30;99879.50;;;6.75;100.00
68525;BME280;55524;51.380;13.372;2023-12-20T11:52:59;99872.56;;;6.73;100.00
68525;BME280;55524;51.380;13.372;2023-12-20T11:55:25;99862.06;;;6.73;100.00
68525;BME280;55524;51.380;13.372;2023-12-20T11:57:52;99847.28;;;6.70;100.00
68525;BME280;55524;51.380;13.372;2023-12-20T12:00:19;99847.06;;;6.76;100.00
68525;BME280;55524;51.380;13.372;2023-12-20T12:02:59;99853.09;;;6.80;100.00
68525;BME280;55524;51.380;13.372;2023-12-20T12:05:25;99845.22;;;6.80;100.00
68525;BME280;55524;51.380;13.372;2023-12-20T12:07:52;99840.66;;;6.85;100.00
68525;BME280;55524;51.380;13.372;2023-12-20T12:10:19;99844.81;;;6.92;100.00
68525;BME280;55524;51.380;13.372;2023-12-20T12:12:45;99824.63;;;6.94;100.00
68525;BME280;55524;51.380;13.372;2023-12-20T12:15:12;99818.31;;;7.00;100.00
68525;BME280;55524;51.380;13.372;2023-12-20T12:17:39;99807.44;;;7.10;100.00
68525;BME280;55524;51.380;13.372;2023-12-20T12:20:06;99818.72;;;7.14;100.00
68525;BME280;55524;51.380;13.372;2023-12-20T12:22:33;99804.72;;;7.13;100.00
68525;BME280;55524;51.380;13.372;2023-12-20T12:25:08;99805.59;;;7.12;100.00
68525;BME280;55524;51.380;13.372;2023-12-20T12:27:43;99815.88;;;7.20;100.00
68525;BME280;55524;51.380;13.372;2023-12-20T12:30:09;99815.88;;;7.20;100.00
68525;BME280;55524;51.380;13.372;2023-12-20T12:32:36;99799.63;;;7.09;100.00
68525;BME280;55524;51.380;13.372;2023-12-20T12:35:04;99796.28;;;7.04;100.00
68525;BME280;55524;51.380;13.372;2023-12-20T12:37:34;99794.50;;;7.04;100.00
68525;BME280;55524;51.380;13.372;2023-12-20T12:40:01;99781.44;;;7.03;100.00
68525;BME280;55524;51.380;13.372;2023-12-20T12:42:31;99784.06;;;7.03;100.00
68525;BME280;55524;51.380;13.372;2023-12-20T12:44:57;99778.97;;;6.98;100.00
68525;BME280;55524;51.380;13.372;2023-12-20T12:47:23;99776.53;;;6.92;100.00
68525;BME280;55524;51.380;13.372;2023-12-20T12:49:52;99770.38;;;6.93;100.00
68525;BME280;55524;51.380;13.372;2023-12-20T12:52:19;99760.75;;;6.94;100.00
68525;BME280;55524;51.380;13.372;2023-12-20T12:54:49;99761.50;;;6.97;100.00
68525;BME280;55524;51.380;13.372;2023-12-20T12:57:16;99761.59;;;6.94;100.00
68525;BME280;55524;51.380;13.372;2023-12-20T12:59:44;99759.88;;;6.93;100.00
68525;BME280;55524;51.380;13.372;2023-12-20T13:02:12;99755.50;;;6.92;100.00
68525;BME280;55524;51.380;13.372;2023-12-20T13:04:40;99743.25;;;6.93;100.00